首页
METAR-TAF:

METAR-TAF

机场 :

唐卡斯特, 英格兰

纬度: 53-29N, 经度: 001-00W, 海拔: 17米

当前天气观测

该预报发布于17分钟前的14:20 UTC
风速23节,风向西转西北,有时为33节阵风
温度 7°C
湿度 57%
气压 1015 hPa
能见度10公里或以上
散云层高于4200英尺

METAR: EGCN 231420Z 29023G33KT 9999 SCT042 07/M01 Q1015

时间: 14:37 (14:37 UTC)

预报

该预报发布于3小时和39分钟前的10:58 UTC
预报有效从23日的 12点(UTC)到 24日的 12点(UTC)
风速10节,风向西
能见度10公里或以上
散云层高于1000英尺
多云层高于3000英尺
成为
从 23日的 12点(UTC)到 23日的 15点(UTC)
能见度10公里或以上
1500米以下无云,无积雨云
短暂存在
从 23日的 12点(UTC)到 23日的 16点(UTC)
风速18节,风向西转西北,有时为28节阵风
能見度: 6000
阵雨
成为
从 23日的 21点(UTC)到 23日的 24点(UTC)
风速4节,风向南转西南
成为
从 24日的 01点(UTC)到 24日的 04点(UTC)
风速10节,风向东转东南
能見度: 8000
散云层高于300英尺
阴天层高于1000英尺
小雨
短暂存在
从 24日的 03点(UTC)到 24日的 10点(UTC)
能見度: 4000
阴天层高于500英尺
几率 30% :
短暂存在
从 24日的 03点(UTC)到 24日的 09点(UTC)
能見度: 1200
阴天层高于200英尺
雨, 雪
成为
从 24日的 10点(UTC)到 24日的 12点(UTC)
风速12节,风向西南
能见度10公里或以上
散云层高于4000英尺

TAF: EGCN 231058Z 2312/2412 28010KT 9999 SCT010 BKN030 BECMG 2312/2315 CAVOK TEMPO 2312/2316 30018G28KT 6000 SHRA BECMG 2321/2324 20004KT BECMG 2401/2404 12010KT 8000 -RA SCT003 OVC010 TEMPO 2403/2410 4000 RA OVC005 PROB30 TEMPO 2403/2409 1200 RASN OVC002 BECMG 2410/2412 22012KT 9999 NSW SCT040

超过4000个机场的气象观测和天气预报(METAR&TAF报告)。

可查询的气象台以黄色和红色小点在地图上表示。

将鼠标移到小点上方,可查看气象台名称。

然后点击查看天气观测和预报。

如需切换地图:点击带黑十字的绿色按钮放大地图;点击带横线的绿色按钮缩小地图;或者点击绿色箭头查看邻近地区的地图。


METAR-TAF: